sensor_id;sensor_type;location;lat;lon;timestamp;pressure;altitude;pressure_sealevel;temperature
20867;BMP280;10593;48.398;10.698;2023-10-08T00:01:09;97006.41;;;21.77
20867;BMP280;10593;48.398;10.698;2023-10-08T00:03:45;97007.44;;;21.74
20867;BMP280;10593;48.398;10.698;2023-10-08T00:06:14;97007.44;;;21.74
20867;BMP280;10593;48.398;10.698;2023-10-08T00:08:40;96995.31;;;21.72
20867;BMP280;10593;48.398;10.698;2023-10-08T00:11:06;97006.66;;;21.72
20867;BMP280;10593;48.398;10.698;2023-10-08T00:13:33;97008.47;;;21.70
20867;BMP280;10593;48.398;10.698;2023-10-08T00:16:12;97003.25;;;21.70
20867;BMP280;10593;48.398;10.698;2023-10-08T00:18:42;97012.88;;;21.70
20867;BMP280;10593;48.398;10.698;2023-10-08T00:21:18;97012.88;;;21.70
20867;BMP280;10593;48.398;10.698;2023-10-08T00:23:46;97003.25;;;21.70
20867;BMP280;10593;48.398;10.698;2023-10-08T00:26:22;97005.03;;;21.70
20867;BMP280;10593;48.398;10.698;2023-10-08T00:29:06;96998.94;;;21.69
20867;BMP280;10593;48.398;10.698;2023-10-08T00:31:43;97000.72;;;21.69
20867;BMP280;10593;48.398;10.698;2023-10-08T00:34:14;97011.19;;;21.69
20867;BMP280;10593;48.398;10.698;2023-10-08T00:36:45;97006.78;;;21.69
20867;BMP280;10593;48.398;10.698;2023-10-08T00:39:12;97001.50;;;21.71
20867;BMP280;10593;48.398;10.698;2023-10-08T00:41:49;97002.34;;;21.71
20867;BMP280;10593;48.398;10.698;2023-10-08T00:44:16;96989.28;;;21.71
20867;BMP280;10593;48.398;10.698;2023-10-08T00:46:48;96999.63;;;21.73
20867;BMP280;10593;48.398;10.698;2023-10-08T00:49:20;96990.03;;;21.73
20867;BMP280;10593;48.398;10.698;2023-10-08T00:51:48;96989.94;;;21.75
20867;BMP280;10593;48.398;10.698;2023-10-08T00:54:28;96974.25;;;21.75
20867;BMP280;10593;48.398;10.698;2023-10-08T00:57:05;96980.34;;;21.75
20867;BMP280;10593;48.398;10.698;2023-10-08T00:59:33;96977.78;;;21.74
20867;BMP280;10593;48.398;10.698;2023-10-08T01:02:04;96975.94;;;21.76
20867;BMP280;10593;48.398;10.698;2023-10-08T01:04:33;96975.94;;;21.76
20867;BMP280;10593;48.398;10.698;2023-10-08T01:07:04;96979.47;;;21.75
20867;BMP280;10593;48.398;10.698;2023-10-08T01:09:39;96969.88;;;21.75
20867;BMP280;10593;48.398;10.698;2023-10-08T01:12:23;96962.94;;;21.74
20867;BMP280;10593;48.398;10.698;2023-10-08T01:14:55;96969.00;;;21.75
20867;BMP280;10593;48.398;10.698;2023-10-08T01:17:30;96973.31;;;21.76
20867;BMP280;10593;48.398;10.698;2023-10-08T01:19:58;96963.72;;;21.76
20867;BMP280;10593;48.398;10.698;2023-10-08T01:22:56;96963.72;;;21.76
20867;BMP280;10593;48.398;10.698;2023-10-08T01:25:22;96967.16;;;21.77
20867;BMP280;10593;48.398;10.698;2023-10-08T01:27:56;96967.16;;;21.77
20867;BMP280;10593;48.398;10.698;2023-10-08T01:30:21;96955.00;;;21.76
20867;BMP280;10593;48.398;10.698;2023-10-08T01:32:47;96960.16;;;21.77
20867;BMP280;10593;48.398;10.698;2023-10-08T01:35:13;96955.78;;;21.78
20867;BMP280;10593;48.398;10.698;2023-10-08T01:37:57;96962.72;;;21.79
20867;BMP280;10593;48.398;10.698;2023-10-08T01:40:26;96958.41;;;21.78
20867;BMP280;10593;48.398;10.698;2023-10-08T01:42:52;96965.34;;;21.79
20867;BMP280;10593;48.398;10.698;2023-10-08T01:45:18;96959.16;;;21.80
20867;BMP280;10593;48.398;10.698;2023-10-08T01:47:45;96961.78;;;21.80
20867;BMP280;10593;48.398;10.698;2023-10-08T01:50:11;96964.41;;;21.80
20867;BMP280;10593;48.398;10.698;2023-10-08T01:52:49;96960.88;;;21.81
20867;BMP280;10593;48.398;10.698;2023-10-08T01:55:17;96953.84;;;21.81
20867;BMP280;10593;48.398;10.698;2023-10-08T01:57:49;96956.47;;;21.81
20867;BMP280;10593;48.398;10.698;2023-10-08T02:00:17;96960.78;;;21.82
20867;BMP280;10593;48.398;10.698;2023-10-08T02:02:50;96961.56;;;21.84
20867;BMP280;10593;48.398;10.698;2023-10-08T02:05:17;96961.56;;;21.84
20867;BMP280;10593;48.398;10.698;2023-10-08T02:07:45;96956.41;;;21.83
20867;BMP280;10593;48.398;10.698;2023-10-08T02:10:11;96956.41;;;21.83
20867;BMP280;10593;48.398;10.698;2023-10-08T02:12:40;96950.28;;;21.82
20867;BMP280;10593;48.398;10.698;2023-10-08T02:15:07;96959.94;;;21.82
20867;BMP280;10593;48.398;10.698;2023-10-08T02:17:34;96959.06;;;21.81
20867;BMP280;10593;48.398;10.698;2023-10-08T02:20:00;96956.47;;;21.81
20867;BMP280;10593;48.398;10.698;2023-10-08T02:22:30;96946.09;;;21.80
20867;BMP280;10593;48.398;10.698;2023-10-08T02:24:56;96953.00;;;21.81
20867;BMP280;10593;48.398;10.698;2023-10-08T02:27:27;96960.00;;;21.80
20867;BMP280;10593;48.398;10.698;2023-10-08T02:29:53;96955.69;;;21.79
20867;BMP280;10593;48.398;10.698;2023-10-08T02:32:20;96952.25;;;21.79
20867;BMP280;10593;48.398;10.698;2023-10-08T02:34:48;96944.41;;;21.79
20867;BMP280;10593;48.398;10.698;2023-10-08T02:37:16;96941.84;;;21.77
20867;BMP280;10593;48.398;10.698;2023-10-08T02:39:42;96941.84;;;21.77
20867;BMP280;10593;48.398;10.698;2023-10-08T02:42:08;96940.97;;;21.77
20867;BMP280;10593;48.398;10.698;2023-10-08T02:44:37;96933.13;;;21.77
20867;BMP280;10593;48.398;10.698;2023-10-08T02:47:09;96933.13;;;21.77
20867;BMP280;10593;48.398;10.698;2023-10-08T02:49:38;96942.78;;;21.76
20867;BMP280;10593;48.398;10.698;2023-10-08T02:52:07;96926.31;;;21.74
20867;BMP280;10593;48.398;10.698;2023-10-08T02:54:34;96939.38;;;21.74
20867;BMP280;10593;48.398;10.698;2023-10-08T02:57:04;96931.53;;;21.74
20867;BMP280;10593;48.398;10.698;2023-10-08T02:59:33;96927.22;;;21.73
20867;BMP280;10593;48.398;10.698;2023-10-08T03:02:07;96924.50;;;21.75
20867;BMP280;10593;48.398;10.698;2023-10-08T03:04:41;96924.50;;;21.75
20867;BMP280;10593;48.398;10.698;2023-10-08T03:07:09;96925.44;;;21.74
20867;BMP280;10593;48.398;10.698;2023-10-08T03:09:37;96920.22;;;21.74
20867;BMP280;10593;48.398;10.698;2023-10-08T03:12:07;96925.44;;;21.74
20867;BMP280;10593;48.398;10.698;2023-10-08T03:14:35;96925.44;;;21.74
20867;BMP280;10593;48.398;10.698;2023-10-08T03:17:14;96921.13;;;21.73
20867;BMP280;10593;48.398;10.698;2023-10-08T03:19:46;96923.75;;;21.73
20867;BMP280;10593;48.398;10.698;2023-10-08T03:22:12;96923.75;;;21.73
20867;BMP280;10593;48.398;10.698;2023-10-08T03:24:38;96931.59;;;21.73
20867;BMP280;10593;48.398;10.698;2023-10-08T03:27:05;96924.63;;;21.73
20867;BMP280;10593;48.398;10.698;2023-10-08T03:29:51;96926.31;;;21.74
20867;BMP280;10593;48.398;10.698;2023-10-08T03:32:19;96924.50;;;21.75
20867;BMP280;10593;48.398;10.698;2023-10-08T03:34:51;96926.31;;;21.74
20867;BMP280;10593;48.398;10.698;2023-10-08T03:37:22;96922.81;;;21.74
20867;BMP280;10593;48.398;10.698;2023-10-08T03:39:55;96925.44;;;21.74
20867;BMP280;10593;48.398;10.698;2023-10-08T03:42:51;96925.53;;;21.72
20867;BMP280;10593;48.398;10.698;2023-10-08T03:45:17;96925.59;;;21.71
20867;BMP280;10593;48.398;10.698;2023-10-08T03:48:03;96917.00;;;21.69
20867;BMP280;10593;48.398;10.698;2023-10-08T03:50:32;96928.28;;;21.69
20867;BMP280;10593;48.398;10.698;2023-10-08T03:52:58;96928.28;;;21.69
20867;BMP280;10593;48.398;10.698;2023-10-08T03:55:24;96928.44;;;21.66
20867;BMP280;10593;48.398;10.698;2023-10-08T03:57:52;96920.69;;;21.65
20867;BMP280;10593;48.398;10.698;2023-10-08T04:00:24;96928.53;;;21.65
20867;BMP280;10593;48.398;10.698;2023-10-08T04:02:58;96921.66;;;21.62
20867;BMP280;10593;48.398;10.698;2023-10-08T04:05:35;96921.66;;;21.62
20867;BMP280;10593;48.398;10.698;2023-10-08T04:08:19;96916.50;;;21.61
20867;BMP280;10593;48.398;10.698;2023-10-08T04:11:05;96926.13;;;21.60
20867;BMP280;10593;48.398;10.698;2023-10-08T04:13:34;96926.19;;;21.59
20867;BMP280;10593;48.398;10.698;2023-10-08T04:16:04;96915.72;;;21.59
20867;BMP280;10593;48.398;10.698;2023-10-08T04:18:31;96927.09;;;21.58
20867;BMP280;10593;48.398;10.698;2023-10-08T04:20:58;96928.88;;;21.57
20867;BMP280;10593;48.398;10.698;2023-10-08T04:23:30;96934.09;;;21.57
20867;BMP280;10593;48.398;10.698;2023-10-08T04:25:56;96934.09;;;21.57
20867;BMP280;10593;48.398;10.698;2023-10-08T04:28:23;96931.56;;;21.56
20867;BMP280;10593;48.398;10.698;2023-10-08T04:30:54;96932.50;;;21.55
20867;BMP280;10593;48.398;10.698;2023-10-08T04:33:27;96932.56;;;21.53
20867;BMP280;10593;48.398;10.698;2023-10-08T04:35:57;96935.19;;;21.53
20867;BMP280;10593;48.398;10.698;2023-10-08T04:38:29;96934.34;;;21.53
20867;BMP280;10593;48.398;10.698;2023-10-08T04:40:56;96931.75;;;21.53
20867;BMP280;10593;48.398;10.698;2023-10-08T04:43:27;96935.28;;;21.52
20867;BMP280;10593;48.398;10.698;2023-10-08T04:45:57;96934.41;;;21.51
20867;BMP280;10593;48.398;10.698;2023-10-08T04:48:26;96936.09;;;21.52
20867;BMP280;10593;48.398;10.698;2023-10-08T04:50:59;96924.81;;;21.52
20867;BMP280;10593;48.398;10.698;2023-10-08T04:53:34;96924.81;;;21.52
20867;BMP280;10593;48.398;10.698;2023-10-08T04:56:08;96929.25;;;21.50
20867;BMP280;10593;48.398;10.698;2023-10-08T04:58:46;96929.25;;;21.50
20867;BMP280;10593;48.398;10.698;2023-10-08T05:01:13;96924.00;;;21.50
20867;BMP280;10593;48.398;10.698;2023-10-08T05:03:48;96926.63;;;21.50
20867;BMP280;10593;48.398;10.698;2023-10-08T05:06:24;96926.63;;;21.50
20867;BMP280;10593;48.398;10.698;2023-10-08T05:09:03;96923.25;;;21.48
20867;BMP280;10593;48.398;10.698;2023-10-08T05:11:52;96937.25;;;21.47
20867;BMP280;10593;48.398;10.698;2023-10-08T05:14:23;96937.25;;;21.47
20867;BMP280;10593;48.398;10.698;2023-10-08T05:17:06;96948.63;;;21.46
20867;BMP280;10593;48.398;10.698;2023-10-08T05:19:41;96948.63;;;21.46
20867;BMP280;10593;48.398;10.698;2023-10-08T05:22:08;96962.69;;;21.43
20867;BMP280;10593;48.398;10.698;2023-10-08T05:24:50;96965.41;;;21.42
20867;BMP280;10593;48.398;10.698;2023-10-08T05:27:37;96965.41;;;21.42
20867;BMP280;10593;48.398;10.698;2023-10-08T05:30:06;96966.50;;;21.38
20867;BMP280;10593;48.398;10.698;2023-10-08T05:32:57;96962.97;;;21.39
20867;BMP280;10593;48.398;10.698;2023-10-08T05:35:36;96965.56;;;21.39
20867;BMP280;10593;48.398;10.698;2023-10-08T05:38:16;96960.34;;;21.39
20867;BMP280;10593;48.398;10.698;2023-10-08T05:40:49;96964.72;;;21.38
20867;BMP280;10593;48.398;10.698;2023-10-08T05:43:27;96984.72;;;21.39
20867;BMP280;10593;48.398;10.698;2023-10-08T05:46:13;96990.81;;;21.40
20867;BMP280;10593;48.398;10.698;2023-10-08T05:49:02;96995.94;;;21.41
20867;BMP280;10593;48.398;10.698;2023-10-08T05:51:39;96995.94;;;21.41
20867;BMP280;10593;48.398;10.698;2023-10-08T05:57:01;97003.72;;;21.43
20867;BMP280;10593;48.398;10.698;2023-10-08T05:59:45;97017.56;;;21.45
20867;BMP280;10593;48.398;10.698;2023-10-08T06:05:03;97015.81;;;21.45
20867;BMP280;10593;48.398;10.698;2023-10-08T06:07:48;97014.03;;;21.46
20867;BMP280;10593;48.398;10.698;2023-10-08T06:10:29;97014.91;;;21.46
20867;BMP280;10593;48.398;10.698;2023-10-08T06:13:08;97017.41;;;21.48
20867;BMP280;10593;48.398;10.698;2023-10-08T06:16:06;97000.78;;;21.49
20867;BMP280;10593;48.398;10.698;2023-10-08T06:18:34;97002.28;;;21.54
20867;BMP280;10593;48.398;10.698;2023-10-08T06:21:05;97004.41;;;21.65
20867;BMP280;10593;48.398;10.698;2023-10-08T06:23:39;97004.41;;;21.65
20867;BMP280;10593;48.398;10.698;2023-10-08T06:26:05;97003.34;;;21.69
20867;BMP280;10593;48.398;10.698;2023-10-08T06:28:43;97005.81;;;21.72
20867;BMP280;10593;48.398;10.698;2023-10-08T06:31:10;97009.13;;;21.75
20867;BMP280;10593;48.398;10.698;2023-10-08T06:33:44;96998.56;;;21.77
20867;BMP280;10593;48.398;10.698;2023-10-08T06:36:11;97006.41;;;21.77
20867;BMP280;10593;48.398;10.698;2023-10-08T06:38:37;97001.09;;;21.78
20867;BMP280;10593;48.398;10.698;2023-10-08T06:41:11;97009.72;;;21.80
20867;BMP280;10593;48.398;10.698;2023-10-08T06:43:48;97011.34;;;21.83
20867;BMP280;10593;48.398;10.698;2023-10-08T06:46:39;97008.69;;;21.84
20867;BMP280;10593;48.398;10.698;2023-10-08T06:49:08;97010.44;;;21.84
20867;BMP280;10593;48.398;10.698;2023-10-08T06:51:42;97017.28;;;21.86
20867;BMP280;10593;48.398;10.698;2023-10-08T06:54:09;97015.50;;;21.87
20867;BMP280;10593;48.398;10.698;2023-10-08T06:56:44;97012.81;;;21.88
20867;BMP280;10593;48.398;10.698;2023-10-08T06:59:17;97015.44;;;21.88
20867;BMP280;10593;48.398;10.698;2023-10-08T07:01:43;97027.66;;;21.88
20867;BMP280;10593;48.398;10.698;2023-10-08T07:04:13;97027.44;;;21.92
20867;BMP280;10593;48.398;10.698;2023-10-08T07:06:42;97027.44;;;21.92
20867;BMP280;10593;48.398;10.698;2023-10-08T07:09:11;97020.44;;;21.93
20867;BMP280;10593;48.398;10.698;2023-10-08T07:11:56;97019.44;;;21.95
20867;BMP280;10593;48.398;10.698;2023-10-08T07:14:27;97013.81;;;22.03
20867;BMP280;10593;48.398;10.698;2023-10-08T07:16:58;97013.81;;;22.03
20867;BMP280;10593;48.398;10.698;2023-10-08T07:19:30;97012.06;;;22.03
20867;BMP280;10593;48.398;10.698;2023-10-08T07:22:03;96998.03;;;22.04
20867;BMP280;10593;48.398;10.698;2023-10-08T07:24:31;96990.13;;;22.06
20867;BMP280;10593;48.398;10.698;2023-10-08T07:27:03;96981.34;;;22.07
20867;BMP280;10593;48.398;10.698;2023-10-08T07:29:35;96990.94;;;22.06
20867;BMP280;10593;48.398;10.698;2023-10-08T07:32:01;96997.03;;;22.07
20867;BMP280;10593;48.398;10.698;2023-10-08T07:34:38;97004.91;;;22.07
20867;BMP280;10593;48.398;10.698;2023-10-08T07:37:04;97009.28;;;22.06
20867;BMP280;10593;48.398;10.698;2023-10-08T07:39:31;97011.88;;;22.06
20867;BMP280;10593;48.398;10.698;2023-10-08T07:42:00;97014.50;;;22.06
20867;BMP280;10593;48.398;10.698;2023-10-08T07:44:27;97014.44;;;22.08
20867;BMP280;10593;48.398;10.698;2023-10-08T07:46:56;97022.31;;;22.08
20867;BMP280;10593;48.398;10.698;2023-10-08T07:49:26;97025.75;;;22.08
20867;BMP280;10593;48.398;10.698;2023-10-08T07:51:56;97030.16;;;22.08
20867;BMP280;10593;48.398;10.698;2023-10-08T07:54:25;97030.16;;;22.08
20867;BMP280;10593;48.398;10.698;2023-10-08T07:56:54;97031.84;;;22.09
20867;BMP280;10593;48.398;10.698;2023-10-08T07:59:41;97031.75;;;22.10
20867;BMP280;10593;48.398;10.698;2023-10-08T08:02:09;97036.91;;;22.12
20867;BMP280;10593;48.398;10.698;2023-10-08T08:04:40;97036.91;;;22.12
20867;BMP280;10593;48.398;10.698;2023-10-08T08:07:07;97035.22;;;22.11
20867;BMP280;10593;48.398;10.698;2023-10-08T08:09:33;97038.63;;;22.13
20867;BMP280;10593;48.398;10.698;2023-10-08T08:12:05;97040.41;;;22.12
20867;BMP280;10593;48.398;10.698;2023-10-08T08:14:37;97036.91;;;22.12
20867;BMP280;10593;48.398;10.698;2023-10-08T08:17:07;97030.69;;;22.14
20867;BMP280;10593;48.398;10.698;2023-10-08T08:19:46;97029.84;;;22.14
20867;BMP280;10593;48.398;10.698;2023-10-08T08:22:14;97027.22;;;22.14
20867;BMP280;10593;48.398;10.698;2023-10-08T08:24:57;97023.75;;;22.13
20867;BMP280;10593;48.398;10.698;2023-10-08T08:27:41;97024.59;;;22.14
20867;BMP280;10593;48.398;10.698;2023-10-08T08:30:10;97024.59;;;22.14
20867;BMP280;10593;48.398;10.698;2023-10-08T08:32:37;97024.59;;;22.14
20867;BMP280;10593;48.398;10.698;2023-10-08T08:35:07;97013.13;;;22.16
20867;BMP280;10593;48.398;10.698;2023-10-08T08:37:33;97008.72;;;22.17
20867;BMP280;10593;48.398;10.698;2023-10-08T08:40:02;97003.47;;;22.17
20867;BMP280;10593;48.398;10.698;2023-10-08T08:42:45;97008.66;;;22.18
20867;BMP280;10593;48.398;10.698;2023-10-08T08:45:20;97017.38;;;22.19
20867;BMP280;10593;48.398;10.698;2023-10-08T08:47:46;97020.75;;;22.21
20867;BMP280;10593;48.398;10.698;2023-10-08T08:50:12;97017.22;;;22.22
20867;BMP280;10593;48.398;10.698;2023-10-08T08:52:39;97010.13;;;22.24
20867;BMP280;10593;48.398;10.698;2023-10-08T08:55:07;97014.38;;;22.26
20867;BMP280;10593;48.398;10.698;2023-10-08T08:57:47;97014.19;;;22.29
20867;BMP280;10593;48.398;10.698;2023-10-08T09:00:15;97017.66;;;22.30
20867;BMP280;10593;48.398;10.698;2023-10-08T09:02:45;97026.91;;;22.37
20867;BMP280;10593;48.398;10.698;2023-10-08T09:05:13;97026.91;;;22.37
20867;BMP280;10593;48.398;10.698;2023-10-08T09:08:03;97024.22;;;22.38
20867;BMP280;10593;48.398;10.698;2023-10-08T09:10:32;97036.25;;;22.42
20867;BMP280;10593;48.398;10.698;2023-10-08T09:13:05;97030.84;;;22.45
20867;BMP280;10593;48.398;10.698;2023-10-08T09:15:31;97035.84;;;22.50
20867;BMP280;10593;48.398;10.698;2023-10-08T09:18:01;97038.25;;;22.54
20867;BMP280;10593;48.398;10.698;2023-10-08T09:20:27;97057.25;;;22.58
20867;BMP280;10593;48.398;10.698;2023-10-08T09:23:07;97056.25;;;22.60
20867;BMP280;10593;48.398;10.698;2023-10-08T09:25:36;97054.25;;;22.65
20867;BMP280;10593;48.398;10.698;2023-10-08T09:28:02;97053.22;;;22.68
20867;BMP280;10593;48.398;10.698;2023-10-08T09:30:34;97074.81;;;22.73
20867;BMP280;10593;48.398;10.698;2023-10-08T09:33:11;97078.09;;;22.76
20867;BMP280;10593;48.398;10.698;2023-10-08T09:35:42;97076.88;;;22.83
20867;BMP280;10593;48.398;10.698;2023-10-08T09:38:09;97076.88;;;22.83
20867;BMP280;10593;48.398;10.698;2023-10-08T09:40:41;97080.25;;;22.85
20867;BMP280;10593;48.398;10.698;2023-10-08T09:43:10;97089.63;;;22.89
20867;BMP280;10593;48.398;10.698;2023-10-08T09:45:40;97095.66;;;22.91
20867;BMP280;10593;48.398;10.698;2023-10-08T09:48:11;97104.13;;;22.96
20867;BMP280;10593;48.398;10.698;2023-10-08T09:50:41;97093.41;;;23.01
20867;BMP280;10593;48.398;10.698;2023-10-08T09:53:12;97093.06;;;23.07
20867;BMP280;10593;48.398;10.698;2023-10-08T09:55:57;97092.84;;;23.11
20867;BMP280;10593;48.398;10.698;2023-10-08T09:58:28;97098.69;;;23.16
20867;BMP280;10593;48.398;10.698;2023-10-08T10:00:56;97071.41;;;23.20
20867;BMP280;10593;48.398;10.698;2023-10-08T10:03:27;97090.00;;;23.31
20867;BMP280;10593;48.398;10.698;2023-10-08T10:05:54;97090.00;;;23.31
20867;BMP280;10593;48.398;10.698;2023-10-08T10:08:25;97091.63;;;23.34
20867;BMP280;10593;48.398;10.698;2023-10-08T10:11:02;97090.63;;;23.36
20867;BMP280;10593;48.398;10.698;2023-10-08T10:14:01;97091.31;;;23.40
20867;BMP280;10593;48.398;10.698;2023-10-08T10:16:27;97099.94;;;23.42
20867;BMP280;10593;48.398;10.698;2023-10-08T10:18:57;97090.09;;;23.45
20867;BMP280;10593;48.398;10.698;2023-10-08T10:21:33;97089.09;;;23.48
20867;BMP280;10593;48.398;10.698;2023-10-08T10:23:59;97089.97;;;23.48
20867;BMP280;10593;48.398;10.698;2023-10-08T10:26:33;97086.22;;;23.52
20867;BMP280;10593;48.398;10.698;2023-10-08T10:31:45;97087.09;;;23.53
20867;BMP280;10593;48.398;10.698;2023-10-08T10:34:17;97081.84;;;23.53
20867;BMP280;10593;48.398;10.698;2023-10-08T10:36:48;97075.72;;;23.52
20867;BMP280;10593;48.398;10.698;2023-10-08T10:39:17;97081.72;;;23.54
20867;BMP280;10593;48.398;10.698;2023-10-08T10:41:48;97083.53;;;23.54
20867;BMP280;10593;48.398;10.698;2023-10-08T10:44:15;97095.53;;;23.58
20867;BMP280;10593;48.398;10.698;2023-10-08T10:46:45;97085.03;;;23.58
20867;BMP280;10593;48.398;10.698;2023-10-08T10:49:21;97085.03;;;23.58
20867;BMP280;10593;48.398;10.698;2023-10-08T10:51:49;97087.66;;;23.58
20867;BMP280;10593;48.398;10.698;2023-10-08T10:54:18;97086.81;;;23.57
20867;BMP280;10593;48.398;10.698;2023-10-08T10:56:50;97077.16;;;23.58
20867;BMP280;10593;48.398;10.698;2023-10-08T10:59:29;97080.53;;;23.59
20867;BMP280;10593;48.398;10.698;2023-10-08T11:02:03;97088.25;;;23.62
20867;BMP280;10593;48.398;10.698;2023-10-08T11:04:47;97088.25;;;23.62
20867;BMP280;10593;48.398;10.698;2023-10-08T11:07:23;97094.44;;;23.61
20867;BMP280;10593;48.398;10.698;2023-10-08T11:09:52;97096.13;;;23.62
20867;BMP280;10593;48.398;10.698;2023-10-08T11:12:21;97087.41;;;23.62
20867;BMP280;10593;48.398;10.698;2023-10-08T11:14:58;97082.06;;;23.63
20867;BMP280;10593;48.398;10.698;2023-10-08T11:17:25;97088.25;;;23.62
20867;BMP280;10593;48.398;10.698;2023-10-08T11:19:52;97086.47;;;23.63
20867;BMP280;10593;48.398;10.698;2023-10-08T11:22:18;97079.44;;;23.63
20867;BMP280;10593;48.398;10.698;2023-10-08T11:24:45;97075.88;;;23.64
20867;BMP280;10593;48.398;10.698;2023-10-08T11:27:18;97067.16;;;23.64
20867;BMP280;10593;48.398;10.698;2023-10-08T11:29:55;97068.94;;;23.63
20867;BMP280;10593;48.398;10.698;2023-10-08T11:32:26;97070.63;;;23.64
20867;BMP280;10593;48.398;10.698;2023-10-08T11:34:57;97066.31;;;23.63
20867;BMP280;10593;48.398;10.698;2023-10-08T11:37:33;97082.81;;;23.65
20867;BMP280;10593;48.398;10.698;2023-10-08T11:40:03;97077.56;;;23.65
20867;BMP280;10593;48.398;10.698;2023-10-08T11:42:43;97071.50;;;23.65
20867;BMP280;10593;48.398;10.698;2023-10-08T11:45:16;97061.81;;;23.65
20867;BMP280;10593;48.398;10.698;2023-10-08T11:47:50;97059.97;;;23.67
20867;BMP280;10593;48.398;10.698;2023-10-08T11:50:27;97060.75;;;23.69
20867;BMP280;10593;48.398;10.698;2023-10-08T11:53:01;97056.31;;;23.70
20867;BMP280;10593;48.398;10.698;2023-10-08T11:55:29;97059.63;;;23.73
20867;BMP280;10593;48.398;10.698;2023-10-08T11:57:59;97059.63;;;23.73
20867;BMP280;10593;48.398;10.698;2023-10-08T12:00:26;97054.38;;;23.73
20867;BMP280;10593;48.398;10.698;2023-10-08T12:02:52;97067.16;;;23.79
20867;BMP280;10593;48.398;10.698;2023-10-08T12:05:21;97067.16;;;23.79
20867;BMP280;10593;48.398;10.698;2023-10-08T12:07:52;97076.72;;;23.80
20867;BMP280;10593;48.398;10.698;2023-10-08T12:10:19;97072.25;;;23.82
20867;BMP280;10593;48.398;10.698;2023-10-08T12:12:50;97061.59;;;23.85
20867;BMP280;10593;48.398;10.698;2023-10-08T12:15:21;97056.91;;;23.90
20867;BMP280;10593;48.398;10.698;2023-10-08T12:17:48;97056.91;;;23.90
20867;BMP280;10593;48.398;10.698;2023-10-08T12:20:40;97062.09;;;23.92
20867;BMP280;10593;48.398;10.698;2023-10-08T12:23:10;97055.91;;;23.93
20867;BMP280;10593;48.398;10.698;2023-10-08T12:25:37;97059.28;;;23.95
20867;BMP280;10593;48.398;10.698;2023-10-08T12:28:04;97060.03;;;23.97
20867;BMP280;10593;48.398;10.698;2023-10-08T12:30:33;97052.91;;;23.99
20867;BMP280;10593;48.398;10.698;2023-10-08T12:33:07;97051.13;;;23.99
20867;BMP280;10593;48.398;10.698;2023-10-08T12:35:42;97048.31;;;24.02
20867;BMP280;10593;48.398;10.698;2023-10-08T12:38:08;97043.00;;;24.04
20867;BMP280;10593;48.398;10.698;2023-10-08T12:40:35;97037.63;;;24.05
20867;BMP280;10593;48.398;10.698;2023-10-08T12:43:16;97042.72;;;24.08
20867;BMP280;10593;48.398;10.698;2023-10-08T12:45:48;97040.13;;;24.08
20867;BMP280;10593;48.398;10.698;2023-10-08T12:48:21;97036.44;;;24.11
20867;BMP280;10593;48.398;10.698;2023-10-08T12:50:48;97039.00;;;24.12
20867;BMP280;10593;48.398;10.698;2023-10-08T12:53:25;97029.22;;;24.14
20867;BMP280;10593;48.398;10.698;2023-10-08T12:56:11;97029.91;;;24.18
20867;BMP280;10593;48.398;10.698;2023-10-08T12:58:46;97029.91;;;24.18
20867;BMP280;10593;48.398;10.698;2023-10-08T13:01:16;97025.47;;;24.18
20867;BMP280;10593;48.398;10.698;2023-10-08T13:03:46;97015.44;;;24.25
20867;BMP280;10593;48.398;10.698;2023-10-08T13:06:18;97015.44;;;24.25
20867;BMP280;10593;48.398;10.698;2023-10-08T13:08:51;97006.63;;;24.26
20867;BMP280;10593;48.398;10.698;2023-10-08T13:11:19;96998.59;;;24.29
20867;BMP280;10593;48.398;10.698;2023-10-08T13:13:50;97004.59;;;24.31
20867;BMP280;10593;48.398;10.698;2023-10-08T13:16:16;97006.97;;;24.35
20867;BMP280;10593;48.398;10.698;2023-10-08T13:18:42;97006.97;;;24.35
20867;BMP280;10593;48.398;10.698;2023-10-08T13:21:10;97018.22;;;24.37
20867;BMP280;10593;48.398;10.698;2023-10-08T13:23:36;97018.09;;;24.39
20867;BMP280;10593;48.398;10.698;2023-10-08T13:26:02;97010.88;;;24.42
20867;BMP280;10593;48.398;10.698;2023-10-08T13:28:34;97008.94;;;24.46
20867;BMP280;10593;48.398;10.698;2023-10-08T13:31:02;97012.31;;;24.48
20867;BMP280;10593;48.398;10.698;2023-10-08T13:33:36;97021.81;;;24.50
20867;BMP280;10593;48.398;10.698;2023-10-08T13:36:06;97014.69;;;24.52
20867;BMP280;10593;48.398;10.698;2023-10-08T13:38:36;97014.50;;;24.55
20867;BMP280;10593;48.398;10.698;2023-10-08T13:41:03;97019.56;;;24.58
20867;BMP280;10593;48.398;10.698;2023-10-08T13:43:34;97014.16;;;24.61
20867;BMP280;10593;48.398;10.698;2023-10-08T13:46:07;97013.09;;;24.64
20867;BMP280;10593;48.398;10.698;2023-10-08T13:48:39;97017.25;;;24.68
20867;BMP280;10593;48.398;10.698;2023-10-08T13:51:07;97018.63;;;24.73
20867;BMP280;10593;48.398;10.698;2023-10-08T13:53:48;97018.63;;;24.73
20867;BMP280;10593;48.398;10.698;2023-10-08T13:56:19;97014.16;;;24.75
20867;BMP280;10593;48.398;10.698;2023-10-08T13:58:50;97016.78;;;24.75
20867;BMP280;10593;48.398;10.698;2023-10-08T14:01:17;97014.91;;;24.77
20867;BMP280;10593;48.398;10.698;2023-10-08T14:03:49;97025.22;;;24.80
20867;BMP280;10593;48.398;10.698;2023-10-08T14:06:18;97016.41;;;24.81
20867;BMP280;10593;48.398;10.698;2023-10-08T14:08:45;97016.41;;;24.81
20867;BMP280;10593;48.398;10.698;2023-10-08T14:11:21;97015.38;;;24.84
20867;BMP280;10593;48.398;10.698;2023-10-08T14:13:51;97018.75;;;24.86
20867;BMP280;10593;48.398;10.698;2023-10-08T14:16:18;97012.47;;;24.88
20867;BMP280;10593;48.398;10.698;2023-10-08T14:18:50;97019.31;;;24.91
20867;BMP280;10593;48.398;10.698;2023-10-08T14:21:20;97008.69;;;24.92
20867;BMP280;10593;48.398;10.698;2023-10-08T14:23:50;97012.94;;;24.95
20867;BMP280;10593;48.398;10.698;2023-10-08T14:26:18;97003.25;;;24.95
20867;BMP280;10593;48.398;10.698;2023-10-08T14:28:49;97006.63;;;24.97
20867;BMP280;10593;48.398;10.698;2023-10-08T14:31:24;97001.34;;;24.97